Time;durP1;ratioP1;P1;durP2;ratioP2;P2;SDS_P1;SDS_P2;PMS_P1;PMS_P2;Temp;Humidity;BMP_temperature;BMP_pressure;BME280_temperature;BME280_humidity;BME280_pressure;Samples;Min_cycle;Max_cycle;Signal;HPM_P1;HPM_P2
2022/03/27 00:02:10;;;;;;;;;;;12.70;75.60;;;;;;4972081;28;20092;-90
2022/03/27 00:04:36;;;;;;;;;;;12.70;76.40;;;;;;4971023;28;19910;-91
2022/03/27 00:07:01;;;;;;;;;;;12.60;76.10;;;;;;4970855;28;19917;-91
2022/03/27 00:09:27;;;;;;;;;;;12.60;76.10;;;;;;4970640;28;20362;-91
2022/03/27 00:11:52;;;;;;;;;;;12.60;76.30;;;;;;4971919;28;19968;-90
2022/03/27 00:14:18;;;;;;;;;;;12.50;76.10;;;;;;4971759;28;19925;-90
2022/03/27 00:16:44;;;;;;;;;;;12.50;76.20;;;;;;4970756;28;19914;-90
2022/03/27 00:19:09;;;;;;;;;;;12.50;76.60;;;;;;4972191;28;19910;-91
2022/03/27 00:21:35;;;;;;;;;;;12.40;75.70;;;;;;4970803;28;20181;-91
2022/03/27 00:24:01;;;;;;;;;;;12.40;77.10;;;;;;4970719;28;19913;-91
2022/03/27 00:26:27;;;;;;;;;;;12.40;76.60;;;;;;4970702;28;20053;-91
2022/03/27 00:28:52;;;;;;;;;;;12.40;77.20;;;;;;4971649;28;19910;-91
2022/03/27 00:31:18;;;;;;;;;;;12.40;76.70;;;;;;4970523;28;19910;-91
2022/03/27 00:33:44;;;;;;;;;;;12.40;77.50;;;;;;4971497;28;19910;-91
2022/03/27 00:36:13;;;;;;;;;;;12.30;77.90;;;;;;4971763;28;19918;-91
2022/03/27 00:38:39;;;;;;;;;;;12.30;77.20;;;;;;4971837;28;20303;-91
2022/03/27 00:41:05;;;;;;;;;;;12.30;77.50;;;;;;4970497;28;19936;-91
2022/03/27 00:43:32;;;;;;;;;;;12.30;77.90;;;;;;4971892;28;19914;-91
2022/03/27 00:45:57;;;;;;;;;;;12.20;77.10;;;;;;4970266;28;20359;-91
2022/03/27 00:48:23;;;;;;;;;;;12.10;78.40;;;;;;4973959;28;19910;-91
2022/03/27 00:50:49;;;;;;;;;;;12.00;78.30;;;;;;4975406;28;19919;-91
2022/03/27 00:53:15;;;;;;;;;;;12.00;79.30;;;;;;4974039;28;20408;-90
2022/03/27 00:55:41;;;;;;;;;;;12.00;78.80;;;;;;4975304;28;19961;-91
2022/03/27 00:58:07;;;;;;;;;;;12.00;78.60;;;;;;4975494;28;19910;-91
2022/03/27 01:00:38;;;;;;;;;;;12.00;79.40;;;;;;4975506;28;19914;-91
2022/03/27 01:03:14;;;;;;;;;;;11.90;79.50;;;;;;4958037;28;19976;-91
2022/03/27 01:05:44;;;;;;;;;;;11.80;80.00;;;;;;4973967;28;20028;-90
2022/03/27 01:08:10;;;;;;;;;;;11.80;80.00;;;;;;4975174;28;19914;-91
2022/03/27 01:10:37;;;;;;;;;;;11.80;80.70;;;;;;4958000;28;19969;-91
2022/03/27 01:13:08;;;;;;;;;;;11.70;80.50;;;;;;4973785;28;19968;-91
2022/03/27 01:15:38;;;;;;;;;;;11.70;80.10;;;;;;4973565;28;19929;-91
2022/03/27 01:18:05;;;;;;;;;;;11.70;79.80;;;;;;4975222;28;19920;-91
2022/03/27 01:20:39;;;;;;;;;;;11.70;80.00;;;;;;4973808;28;19910;-90
2022/03/27 01:23:09;;;;;;;;;;;11.70;79.40;;;;;;4975430;28;19921;-91
2022/03/27 01:25:35;;;;;;;;;;;11.70;80.30;;;;;;4973936;28;20395;-90
2022/03/27 01:28:01;;;;;;;;;;;11.70;81.10;;;;;;4974756;28;19957;-90
2022/03/27 01:30:27;;;;;;;;;;;11.60;81.20;;;;;;4957394;28;19961;-90
2022/03/27 01:32:53;;;;;;;;;;;11.60;80.70;;;;;;4973310;28;20378;-91
2022/03/27 01:35:19;;;;;;;;;;;11.60;80.60;;;;;;4957139;28;19992;-91
2022/03/27 01:37:47;;;;;;;;;;;11.60;80.50;;;;;;4973288;28;19914;-90
2022/03/27 01:40:13;;;;;;;;;;;11.50;80.70;;;;;;4974637;28;19914;-90
2022/03/27 01:42:39;;;;;;;;;;;11.50;81.00;;;;;;4974864;28;19917;-90
2022/03/27 01:45:05;;;;;;;;;;;11.50;81.10;;;;;;4973174;28;19965;-90
2022/03/27 01:47:31;;;;;;;;;;;11.40;83.00;;;;;;4957158;28;20393;-90
2022/03/27 01:49:57;;;;;;;;;;;11.40;82.10;;;;;;4957060;28;19910;-90
2022/03/27 01:52:22;;;;;;;;;;;11.30;82.70;;;;;;4974110;28;19914;-90
2022/03/27 01:54:48;;;;;;;;;;;11.30;82.30;;;;;;4972936;28;19924;-90
2022/03/27 01:57:13;;;;;;;;;;;11.30;82.30;;;;;;4974533;28;19957;-90
2022/03/27 01:59:39;;;;;;;;;;;11.30;83.00;;;;;;4973207;28;20655;-90
2022/03/27 02:02:04;;;;;;;;;;;11.30;82.50;;;;;;4974124;28;19921;-90
2022/03/27 02:04:30;;;;;;;;;;;11.30;82.40;;;;;;4972916;28;19910;-90
2022/03/27 02:06:56;;;;;;;;;;;11.30;83.40;;;;;;4972986;28;19910;-90
2022/03/27 02:09:21;;;;;;;;;;;11.30;82.70;;;;;;4974199;28;20410;-90
2022/03/27 02:11:47;;;;;;;;;;;11.30;83.10;;;;;;4974131;28;19910;-90
2022/03/27 02:14:12;;;;;;;;;;;11.40;83.00;;;;;;4972518;28;19914;-90
2022/03/27 02:16:38;;;;;;;;;;;11.30;82.10;;;;;;4973803;28;19918;-90
2022/03/27 02:19:08;;;;;;;;;;;11.30;82.50;;;;;;4972541;28;19910;-90
2022/03/27 02:21:34;;;;;;;;;;;11.30;82.90;;;;;;4972444;28;19910;-90
2022/03/27 02:24:03;;;;;;;;;;;11.20;82.90;;;;;;4972708;28;19910;-91
2022/03/27 02:26:29;;;;;;;;;;;11.20;82.60;;;;;;4972664;28;19926;-90
2022/03/27 02:28:54;;;;;;;;;;;11.20;83.00;;;;;;4972524;28;19910;-90
2022/03/27 02:31:20;;;;;;;;;;;11.20;82.50;;;;;;4956154;28;19910;-90
2022/03/27 02:33:45;;;;;;;;;;;11.30;83.10;;;;;;4972197;28;20264;-90
2022/03/27 02:36:11;;;;;;;;;;;11.20;83.80;;;;;;4972083;28;19941;-90
2022/03/27 02:38:37;;;;;;;;;;;11.20;82.20;;;;;;4973458;28;19910;-90
2022/03/27 02:41:04;;;;;;;;;;;11.20;83.50;;;;;;4973460;28;19949;-90
2022/03/27 02:43:30;;;;;;;;;;;11.10;82.60;;;;;;4972007;28;19917;-90
2022/03/27 02:45:55;;;;;;;;;;;11.10;83.80;;;;;;4972094;28;19910;-90
2022/03/27 02:48:22;;;;;;;;;;;11.10;83.80;;;;;;4973424;28;19910;-90
2022/03/27 02:50:47;;;;;;;;;;;11.10;82.60;;;;;;4973385;28;20442;-90
2022/03/27 02:53:13;;;;;;;;;;;11.00;83.80;;;;;;4971883;28;19997;-91
2022/03/27 02:55:39;;;;;;;;;;;10.90;83.80;;;;;;4973035;28;19926;-90
2022/03/27 02:58:04;;;;;;;;;;;10.80;83.60;;;;;;4971639;28;19917;-90
2022/03/27 03:00:30;;;;;;;;;;;10.80;84.00;;;;;;4972977;28;19949;-90
2022/03/27 03:02:56;;;;;;;;;;;10.70;84.50;;;;;;4973098;28;19930;-90
2022/03/27 03:05:22;;;;;;;;;;;10.70;85.20;;;;;;4971946;28;20402;-90
2022/03/27 03:07:47;;;;;;;;;;;10.70;85.60;;;;;;4971868;28;19910;-90
2022/03/27 03:10:16;;;;;;;;;;;10.60;85.30;;;;;;4971692;28;19921;-90
2022/03/27 03:12:41;;;;;;;;;;;10.60;85.90;;;;;;4955454;28;20267;-91
2022/03/27 03:15:07;;;;;;;;;;;10.60;85.90;;;;;;4955343;28;19925;-90
2022/03/27 03:17:33;;;;;;;;;;;10.60;85.40;;;;;;4971535;28;20053;-90
2022/03/27 03:19:59;;;;;;;;;;;10.60;86.50;;;;;;4971607;28;20001;-90
2022/03/27 03:22:25;;;;;;;;;;;10.50;86.30;;;;;;4971545;28;19916;-91
2022/03/27 03:24:51;;;;;;;;;;;10.60;87.10;;;;;;4971665;28;19910;-90
2022/03/27 03:27:17;;;;;;;;;;;10.60;86.80;;;;;;4971599;28;20260;-90
2022/03/27 03:29:42;;;;;;;;;;;10.60;85.60;;;;;;4971177;28;19914;-90
2022/03/27 03:32:08;;;;;;;;;;;10.60;86.10;;;;;;4971313;28;20311;-90
2022/03/27 03:34:34;;;;;;;;;;;10.70;86.40;;;;;;4972356;28;19911;-90
2022/03/27 03:36:59;;;;;;;;;;;10.70;86.00;;;;;;4972485;28;20010;-90
2022/03/27 03:39:25;;;;;;;;;;;10.60;86.70;;;;;;4971290;28;19957;-90
2022/03/27 03:41:50;;;;;;;;;;;10.60;87.00;;;;;;4971294;28;19917;-90
2022/03/27 03:44:16;;;;;;;;;;;10.60;86.70;;;;;;4971155;28;19910;-90
2022/03/27 03:46:41;;;;;;;;;;;10.60;86.70;;;;;;4972401;28;19914;-90
2022/03/27 03:49:07;;;;;;;;;;;10.60;87.00;;;;;;4971119;28;20217;-90
2022/03/27 03:51:36;;;;;;;;;;;10.60;87.20;;;;;;4971263;28;19968;-90
2022/03/27 03:54:03;;;;;;;;;;;10.50;88.00;;;;;;4972179;28;19949;-91
2022/03/27 03:56:29;;;;;;;;;;;10.40;87.70;;;;;;4970809;28;20450;-91
2022/03/27 03:58:54;;;;;;;;;;;10.40;88.30;;;;;;4970841;28;19914;-90
2022/03/27 04:01:20;;;;;;;;;;;10.40;88.40;;;;;;4972336;28;19910;-90
2022/03/27 04:03:45;;;;;;;;;;;10.40;88.40;;;;;;4970807;28;20397;-90
2022/03/27 04:06:11;;;;;;;;;;;10.30;88.10;;;;;;4972240;28;20391;-90
2022/03/27 04:08:36;;;;;;;;;;;10.20;89.20;;;;;;4972157;28;20379;-90
2022/03/27 04:11:02;;;;;;;;;;;10.20;89.90;;;;;;4972126;28;19941;-91
2022/03/27 04:13:28;;;;;;;;;;;10.20;89.90;;;;;;4970909;28;19911;-90
2022/03/27 04:15:53;;;;;;;;;;;10.30;90.20;;;;;;4971743;28;19918;-90
2022/03/27 04:18:19;;;;;;;;;;;10.30;89.50;;;;;;4971910;28;19910;-90
2022/03/27 04:20:45;;;;;;;;;;;10.30;89.10;;;;;;4971983;28;19911;-90
2022/03/27 04:23:11;;;;;;;;;;;10.30;89.20;;;;;;4976347;28;19957;-90
2022/03/27 04:25:38;;;;;;;;;;;10.30;88.90;;;;;;4977153;28;20019;-90
2022/03/27 04:28:05;;;;;;;;;;;10.30;89.50;;;;;;4977237;28;20293;-90
2022/03/27 04:30:30;;;;;;;;;;;10.30;90.20;;;;;;4977071;28;20382;-90
2022/03/27 04:32:56;;;;;;;;;;;10.20;90.00;;;;;;4976954;28;19910;-90
2022/03/27 04:35:22;;;;;;;;;;;10.20;90.60;;;;;;4978421;28;19941;-90
2022/03/27 04:37:47;;;;;;;;;;;10.20;90.60;;;;;;4976955;28;19964;-90
2022/03/27 04:40:13;;;;;;;;;;;10.10;90.40;;;;;;4978135;28;19918;-90
2022/03/27 04:42:40;;;;;;;;;;;10.20;90.90;;;;;;4978180;28;19932;-91
2022/03/27 04:45:06;;;;;;;;;;;10.10;90.60;;;;;;4976718;28;19911;-90
2022/03/27 04:47:31;;;;;;;;;;;10.10;90.50;;;;;;4976960;28;19910;-90
2022/03/27 04:49:57;;;;;;;;;;;10.20;90.70;;;;;;4978221;28;19957;-90
2022/03/27 04:52:22;;;;;;;;;;;10.20;90.40;;;;;;4977075;28;19914;-91
2022/03/27 04:54:48;;;;;;;;;;;10.10;90.30;;;;;;4976893;28;19914;-90
2022/03/27 04:57:14;;;;;;;;;;;10.20;90.90;;;;;;4976792;28;20369;-90
2022/03/27 04:59:39;;;;;;;;;;;10.20;90.40;;;;;;4977875;28;20049;-90
2022/03/27 05:02:05;;;;;;;;;;;10.20;90.60;;;;;;4960382;28;19941;-90
2022/03/27 05:04:31;;;;;;;;;;;10.10;91.10;;;;;;4978032;28;20405;-91
2022/03/27 05:06:57;;;;;;;;;;;10.10;91.00;;;;;;4977986;28;19910;-91
2022/03/27 05:09:22;;;;;;;;;;;10.10;90.90;;;;;;4978097;28;19918;-90
2022/03/27 05:11:48;;;;;;;;;;;10.10;90.80;;;;;;4978212;28;20006;-90
2022/03/27 05:14:13;;;;;;;;;;;10.00;91.30;;;;;;4976537;28;19910;-90
2022/03/27 05:16:39;;;;;;;;;;;10.00;91.20;;;;;;4977897;28;19925;-90
2022/03/27 05:19:05;;;;;;;;;;;9.90;91.50;;;;;;4976603;28;19910;-91
2022/03/27 05:21:31;;;;;;;;;;;9.90;91.30;;;;;;4960321;28;19910;-90
2022/03/27 05:23:57;;;;;;;;;;;9.80;91.60;;;;;;4977812;28;20393;-90
2022/03/27 05:26:23;;;;;;;;;;;9.80;91.40;;;;;;4976587;28;19917;-90
2022/03/27 05:28:48;;;;;;;;;;;9.80;91.60;;;;;;4976619;28;20374;-91
2022/03/27 05:31:14;;;;;;;;;;;9.80;92.00;;;;;;4976699;28;19910;-90
2022/03/27 05:33:40;;;;;;;;;;;9.70;91.80;;;;;;4974004;28;19942;-90
2022/03/27 05:36:07;;;;;;;;;;;9.70;91.60;;;;;;4974556;28;20272;-90
2022/03/27 05:38:33;;;;;;;;;;;9.70;92.00;;;;;;4957143;28;19914;-90
2022/03/27 05:40:59;;;;;;;;;;;9.70;91.90;;;;;;4973226;28;19964;-90
2022/03/27 05:43:25;;;;;;;;;;;9.60;92.20;;;;;;4974479;28;19933;-90
2022/03/27 05:45:51;;;;;;;;;;;9.60;92.20;;;;;;4974593;28;20286;-90
2022/03/27 05:48:16;;;;;;;;;;;9.60;92.10;;;;;;4973488;28;20212;-90
2022/03/27 05:50:42;;;;;;;;;;;9.50;92.40;;;;;;4974609;28;19938;-90
2022/03/27 05:53:07;;;;;;;;;;;9.50;92.50;;;;;;4974780;28;20322;-90
2022/03/27 05:55:33;;;;;;;;;;;9.50;92.40;;;;;;4974405;28;19918;-90
2022/03/27 05:57:59;;;;;;;;;;;9.50;92.40;;;;;;4974204;28;19965;-90
2022/03/27 06:00:26;;;;;;;;;;;9.50;92.70;;;;;;4974097;28;19925;-90
2022/03/27 06:02:52;;;;;;;;;;;9.50;92.60;;;;;;4974021;28;19965;-90
2022/03/27 06:05:22;;;;;;;;;;;9.50;92.80;;;;;;4974187;28;19957;-90
2022/03/27 06:07:49;;;;;;;;;;;9.50;92.90;;;;;;4972776;28;19910;-90
2022/03/27 06:10:18;;;;;;;;;;;9.50;92.90;;;;;;4973030;28;19914;-90
2022/03/27 06:12:44;;;;;;;;;;;9.50;93.30;;;;;;4974333;28;19910;-90
2022/03/27 06:15:10;;;;;;;;;;;9.50;93.20;;;;;;4972801;28;20001;-90
2022/03/27 06:17:43;;;;;;;;;;;9.40;93.80;;;;;;4974217;28;20406;-90
2022/03/27 06:20:09;;;;;;;;;;;9.40;93.50;;;;;;4973874;28;19910;-91
2022/03/27 06:22:35;;;;;;;;;;;9.50;93.30;;;;;;4972580;28;19911;-90
2022/03/27 06:25:01;;;;;;;;;;;9.50;93.60;;;;;;4973884;28;19960;-91
2022/03/27 06:27:26;;;;;;;;;;;9.50;93.60;;;;;;4972666;28;19987;-91
2022/03/27 06:29:52;;;;;;;;;;;9.60;94.10;;;;;;4972527;28;19914;-90
2022/03/27 06:32:17;;;;;;;;;;;9.60;93.50;;;;;;4972423;28;19921;-90
2022/03/27 06:34:43;;;;;;;;;;;9.70;93.60;;;;;;4972438;28;19914;-90
2022/03/27 06:37:08;;;;;;;;;;;9.70;93.60;;;;;;4956427;28;19964;-90
2022/03/27 06:39:34;;;;;;;;;;;9.80;93.20;;;;;;4974020;28;20083;-92
2022/03/27 06:42:00;;;;;;;;;;;9.90;93.60;;;;;;4972381;28;20294;-91
2022/03/27 06:44:25;;;;;;;;;;;10.00;93.50;;;;;;4971797;28;19949;-90
2022/03/27 06:46:51;;;;;;;;;;;10.10;93.20;;;;;;4972154;28;20358;-90
2022/03/27 06:49:17;;;;;;;;;;;10.20;93.10;;;;;;4973445;28;19911;-91
2022/03/27 06:51:43;;;;;;;;;;;10.30;93.20;;;;;;4973759;28;19910;-91
2022/03/27 06:54:09;;;;;;;;;;;10.40;92.80;;;;;;4972330;28;19952;-90
2022/03/27 06:56:34;;;;;;;;;;;10.50;93.00;;;;;;4971936;28;20142;-91
2022/03/27 06:59:00;;;;;;;;;;;10.60;92.50;;;;;;4973279;28;19953;-90
2022/03/27 07:04:10;;;;;;;;;;;10.80;92.30;;;;;;4973441;28;19928;-91
2022/03/27 07:06:36;;;;;;;;;;;10.90;92.80;;;;;;4971853;28;19965;-91
2022/03/27 07:09:01;;;;;;;;;;;11.00;92.30;;;;;;4971955;28;19957;-91
2022/03/27 07:11:35;;;;;;;;;;;11.10;92.20;;;;;;4973724;28;19961;-91
2022/03/27 07:14:01;;;;;;;;;;;11.20;91.90;;;;;;4971543;28;19925;-93
2022/03/27 07:16:27;;;;;;;;;;;11.20;91.90;;;;;;4972292;28;20433;-94
2022/03/27 07:18:55;;;;;;;;;;;11.30;91.60;;;;;;4972402;28;19910;-94
2022/03/27 07:21:23;;;;;;;;;;;11.50;91.60;;;;;;4972525;28;20367;-92
2022/03/27 07:23:48;;;;;;;;;;;11.50;91.30;;;;;;4972156;28;19917;-94
2022/03/27 07:26:17;;;;;;;;;;;11.60;91.50;;;;;;4972032;28;19910;-93
2022/03/27 07:28:42;;;;;;;;;;;11.70;91.50;;;;;;4972080;28;19914;-93
2022/03/27 07:31:11;;;;;;;;;;;11.80;91.40;;;;;;4972136;28;19910;-93
2022/03/27 07:33:37;;;;;;;;;;;11.90;91.30;;;;;;4972135;28;19910;-94
2022/03/27 07:36:05;;;;;;;;;;;12.00;91.40;;;;;;4971891;28;20009;-93
2022/03/27 07:38:31;;;;;;;;;;;12.10;90.80;;;;;;4972528;28;19910;-94
2022/03/27 07:41:00;;;;;;;;;;;12.10;91.30;;;;;;4971986;28;20064;-93
2022/03/27 07:43:30;;;;;;;;;;;12.30;90.90;;;;;;4971970;28;20160;-92
2022/03/27 07:45:56;;;;;;;;;;;12.40;91.10;;;;;;4971987;28;19970;-94
2022/03/27 07:48:24;;;;;;;;;;;12.50;90.10;;;;;;4971749;28;19953;-94
2022/03/27 07:50:54;;;;;;;;;;;12.60;90.80;;;;;;4972040;28;19918;-90
2022/03/27 07:53:20;;;;;;;;;;;12.70;90.70;;;;;;4974279;28;19918;-92
2022/03/27 07:55:46;;;;;;;;;;;12.80;90.10;;;;;;4972443;28;19918;-92
2022/03/27 07:58:11;;;;;;;;;;;12.90;90.50;;;;;;4973164;28;20386;-92
2022/03/27 08:00:37;;;;;;;;;;;13.00;89.60;;;;;;4973637;28;19965;-95
2022/03/27 08:03:02;;;;;;;;;;;13.10;89.90;;;;;;4971213;28;19922;-94
2022/03/27 08:05:28;;;;;;;;;;;13.10;88.50;;;;;;4971415;28;20279;-94
2022/03/27 08:07:54;;;;;;;;;;;13.20;87.60;;;;;;4971454;28;19910;-93
2022/03/27 08:10:20;;;;;;;;;;;13.20;87.90;;;;;;4971584;28;19949;-93
2022/03/27 08:12:50;;;;;;;;;;;13.30;87.90;;;;;;4971676;28;19921;-94
2022/03/27 08:15:17;;;;;;;;;;;13.40;88.30;;;;;;4971500;28;19922;-93
2022/03/27 08:17:46;;;;;;;;;;;13.50;88.70;;;;;;4971515;28;20576;-95
2022/03/27 08:20:14;;;;;;;;;;;13.60;88.60;;;;;;4972595;28;19910;-93
2022/03/27 08:22:39;;;;;;;;;;;13.80;87.60;;;;;;4972381;28;19910;-94
2022/03/27 08:25:05;;;;;;;;;;;13.80;87.60;;;;;;4972292;28;20050;-95
2022/03/27 08:27:31;;;;;;;;;;;14.00;87.30;;;;;;4972404;28;20352;-94
2022/03/27 08:29:59;;;;;;;;;;;14.10;87.60;;;;;;4972141;28;19926;-94
2022/03/27 08:32:25;;;;;;;;;;;14.20;86.10;;;;;;4972457;28;19993;-94
2022/03/27 08:34:50;;;;;;;;;;;14.20;87.30;;;;;;4972383;28;20343;-95
2022/03/27 08:37:17;;;;;;;;;;;14.40;87.10;;;;;;4972735;28;19921;-94
2022/03/27 08:39:45;;;;;;;;;;;14.50;86.40;;;;;;4976100;28;19932;-94
2022/03/27 08:42:20;;;;;;;;;;;14.70;85.90;;;;;;4977401;28;20009;-94
2022/03/27 08:44:48;;;;;;;;;;;14.80;85.40;;;;;;4973567;28;19910;-91
2022/03/27 08:47:15;;;;;;;;;;;15.00;85.70;;;;;;4978826;28;19916;-91
2022/03/27 08:49:50;;;;;;;;;;;15.10;84.20;;;;;;4974389;28;19917;-92
2022/03/27 08:52:21;;;;;;;;;;;15.20;81.50;;;;;;4958950;28;19949;-91
2022/03/27 08:55:02;;;;;;;;;;;15.30;79.50;;;;;;4973779;28;19910;-94
2022/03/27 08:57:50;;;;;;;;;;;15.40;78.50;;;;;;4971947;28;20728;-94
2022/03/27 09:00:29;;;;;;;;;;;15.50;79.00;;;;;;4956062;28;19910;-96
2022/03/27 09:03:06;;;;;;;;;;;15.70;78.60;;;;;;4972240;28;19929;-95
2022/03/27 09:05:36;;;;;;;;;;;15.80;78.50;;;;;;4955994;28;19915;-93
2022/03/27 09:08:07;;;;;;;;;;;15.90;79.40;;;;;;4973191;28;19910;-93
2022/03/27 09:10:33;;;;;;;;;;;16.00;78.60;;;;;;4975845;28;20394;-93
2022/03/27 09:13:00;;;;;;;;;;;16.10;78.20;;;;;;4976788;28;19917;-93
2022/03/27 09:15:54;;;;;;;;;;;16.20;78.80;;;;;;4975907;28;19969;-95
2022/03/27 09:27:36;;;;;;;;;;;16.80;77.70;;;;;;4962529;28;19914;-94
2022/03/27 11:37:09;;;;;;;;;;;21.20;57.80;;;;;;5047019;23;20465;-91
2022/03/27 11:39:36;;;;;;;;;;;21.20;58.70;;;;;;4950326;28;19914;-94
2022/03/27 11:42:20;;;;;;;;;;;21.30;59.20;;;;;;4956252;28;19945;-90
2022/03/27 11:47:34;;;;;;;;;;;21.50;57.10;;;;;;4973819;28;19917;-90
2022/03/27 11:50:00;;;;;;;;;;;21.50;58.40;;;;;;4959250;28;19922;-91
2022/03/27 11:52:26;;;;;;;;;;;21.60;59.30;;;;;;4956548;28;20394;-91
2022/03/27 11:55:01;;;;;;;;;;;21.70;58.00;;;;;;4972861;28;19910;-91
2022/03/27 11:57:42;;;;;;;;;;;21.80;59.50;;;;;;4973267;28;19910;-91
2022/03/27 12:00:08;;;;;;;;;;;21.90;57.50;;;;;;4971765;28;19910;-91
2022/03/27 12:02:43;;;;;;;;;;;22.00;57.10;;;;;;4957654;28;19917;-91
2022/03/27 12:05:09;;;;;;;;;;;22.10;60.40;;;;;;4957684;28;20295;-91
2022/03/27 12:08:02;;;;;;;;;;;22.20;57.30;;;;;;4975684;28;19946;-92
2022/03/27 12:10:31;;;;;;;;;;;22.20;57.40;;;;;;4952597;28;19933;-91
2022/03/27 12:13:00;;;;;;;;;;;22.40;57.60;;;;;;4957289;28;19932;-91
2022/03/27 12:15:35;;;;;;;;;;;22.50;58.50;;;;;;4972713;28;20548;-94
2022/03/27 12:18:02;;;;;;;;;;;22.50;57.10;;;;;;4971600;28;19910;-94
2022/03/27 12:20:37;;;;;;;;;;;22.70;57.80;;;;;;4976799;28;19910;-96
2022/03/27 12:32:27;;;;;;;;;;;;;;;;;;;;;
2022/03/27 12:42:09;;;;;;;;;;;23.00;57.00;;;;;;4858387;29;20194;-94
2022/03/27 12:45:49;;;;;;;;;;;23.00;55.90;;;;;;4920597;29;20343;-95
2022/03/27 12:48:14;;;;;;;;;;;23.10;56.00;;;;;;4949280;28;20004;-94
2022/03/27 12:50:42;;;;;;;;;;;22.90;53.50;;;;;;4976316;28;19910;-94
2022/03/27 12:53:12;;;;;;;;;;;22.90;55.70;;;;;;4977419;28;19910;-94
2022/03/27 12:55:50;;;;;;;;;;;23.30;55.40;;;;;;4976717;28;19918;-93
2022/03/27 12:58:17;;;;;;;;;;;23.60;54.80;;;;;;4975018;28;19921;-93
2022/03/27 13:00:44;;;;;;;;;;;23.90;54.80;;;;;;4977918;28;19914;-93
2022/03/27 13:03:19;;;;;;;;;;;24.10;54.70;;;;;;4977032;28;19913;-94
2022/03/27 13:05:56;;;;;;;;;;;24.50;54.60;;;;;;4974849;28;20382;-93
2022/03/27 13:08:25;;;;;;;;;;;24.80;53.70;;;;;;4962075;28;20339;-94
2022/03/27 13:10:57;;;;;;;;;;;24.80;52.00;;;;;;4960704;28;20297;-94
2022/03/27 13:13:33;;;;;;;;;;;24.90;52.60;;;;;;4977114;28;20193;-93
2022/03/27 13:15:59;;;;;;;;;;;25.10;52.80;;;;;;4974452;28;19918;-94
2022/03/27 13:18:31;;;;;;;;;;;25.30;52.70;;;;;;4977987;28;19917;-96
2022/03/27 13:20:58;;;;;;;;;;;25.40;51.80;;;;;;4975661;28;20460;-94
2022/03/27 13:23:24;;;;;;;;;;;25.50;51.30;;;;;;4975193;28;19942;-94
2022/03/27 13:25:51;;;;;;;;;;;25.70;51.90;;;;;;4974692;28;20398;-94
2022/03/27 13:28:19;;;;;;;;;;;25.80;50.30;;;;;;4976345;28;19911;-95
2022/03/27 13:30:45;;;;;;;;;;;25.90;50.80;;;;;;4977897;28;19906;-94
2022/03/27 13:33:11;;;;;;;;;;;26.00;51.50;;;;;;4975794;28;20091;-95
2022/03/27 13:35:36;;;;;;;;;;;26.10;50.90;;;;;;4975215;28;19914;-95
2022/03/27 13:38:08;;;;;;;;;;;25.90;50.00;;;;;;4974375;28;19954;-94
2022/03/27 13:43:21;;;;;;;;;;;25.80;50.70;;;;;;4975584;28;19960;-94
2022/03/27 13:45:47;;;;;;;;;;;25.80;51.80;;;;;;4974097;28;19917;-94
2022/03/27 13:48:44;;;;;;;;;;;25.90;50.80;;;;;;4975796;28;20382;-95
2022/03/27 13:51:23;;;;;;;;;;;;;;;;;;;;;
2022/03/27 13:57:05;;;;;;;;;;;;;;;;;;;;;
2022/03/27 13:59:32;;;;;;;;;;;24.90;51.00;;;;;;4970957;28;20383;-95
2022/03/27 14:02:09;;;;;;;;;;;24.60;52.10;;;;;;4975888;28;19910;-95
2022/03/27 14:04:37;;;;;;;;;;;24.40;52.50;;;;;;4976074;28;19910;-96
2022/03/27 14:07:03;;;;;;;;;;;23.70;52.30;;;;;;4975985;28;19930;-92
2022/03/27 14:09:29;;;;;;;;;;;23.30;52.70;;;;;;4976895;28;19933;-91
2022/03/27 14:11:54;;;;;;;;;;;23.50;53.10;;;;;;4975064;28;20377;-93
2022/03/27 14:14:20;;;;;;;;;;;23.80;52.50;;;;;;4975585;28;19917;-91
2022/03/27 14:16:46;;;;;;;;;;;24.50;53.20;;;;;;4977326;28;20260;-93
2022/03/27 14:19:11;;;;;;;;;;;24.80;51.40;;;;;;4977942;28;19949;-94
2022/03/27 14:21:40;;;;;;;;;;;25.10;52.50;;;;;;4974910;28;19917;-95
2022/03/27 14:24:13;;;;;;;;;;;25.70;52.40;;;;;;4975267;28;20000;-95
2022/03/27 14:26:39;;;;;;;;;;;26.30;52.90;;;;;;4975306;28;19914;-94
2022/03/27 14:29:25;;;;;;;;;;;26.50;53.90;;;;;;4975477;28;20359;-95
2022/03/27 14:31:56;;;;;;;;;;;26.50;51.30;;;;;;4975675;28;19910;-95
2022/03/27 14:34:24;;;;;;;;;;;26.70;51.90;;;;;;4976696;28;19911;-93
2022/03/27 14:36:51;;;;;;;;;;;27.20;51.50;;;;;;4973588;28;19929;-94
2022/03/27 14:39:24;;;;;;;;;;;28.10;50.60;;;;;;4973828;28;19910;-96
2022/03/27 14:41:53;;;;;;;;;;;28.80;50.60;;;;;;4974283;28;19910;-95
2022/03/27 14:44:23;;;;;;;;;;;29.30;49.60;;;;;;4976406;28;19946;-94
2022/03/27 14:46:49;;;;;;;;;;;29.90;49.10;;;;;;4977815;28;19968;-94
2022/03/27 14:49:15;;;;;;;;;;;29.70;48.70;;;;;;4975078;28;19930;-93
2022/03/27 14:51:44;;;;;;;;;;;30.00;48.30;;;;;;4974023;28;19914;-94
2022/03/27 14:57:02;;;;;;;;;;;31.90;46.10;;;;;;4978022;28;19925;-96
2022/03/27 14:59:27;;;;;;;;;;;33.60;45.40;;;;;;4973640;28;19910;-93
2022/03/27 15:01:53;;;;;;;;;;;34.40;44.50;;;;;;4977809;28;20001;-94
2022/03/27 15:04:21;;;;;;;;;;;35.60;44.40;;;;;;4974077;28;19917;-96
2022/03/27 15:06:49;;;;;;;;;;;36.20;44.00;;;;;;4980473;28;19977;-94
2022/03/27 15:09:17;;;;;;;;;;;36.20;42.50;;;;;;4973760;28;19929;-94
2022/03/27 15:15:24;;;;;;;;;;;35.50;42.60;;;;;;4976728;28;20097;-94
2022/03/27 15:18:42;;;;;;;;;;;34.50;42.40;;;;;;4936266;29;19950;-95
2022/03/27 15:25:03;;;;;;;;;;;;;;;;;;;;;
2022/03/27 15:28:25;;;;;;;;;;;;;;;;;;;;;
2022/03/27 15:50:28;;;;;;;;;;;27.20;45.80;;;;;;6021693;23;19921;-96
2022/03/27 15:55:59;;;;;;;;;;;25.10;47.60;;;;;;4937941;29;20025;-95
2022/03/27 15:58:29;;;;;;;;;;;24.40;49.20;;;;;;4917953;29;20435;-95
2022/03/27 16:00:55;;;;;;;;;;;24.40;49.70;;;;;;4918113;29;19937;-95
2022/03/27 16:03:21;;;;;;;;;;;24.60;48.10;;;;;;4918038;29;20450;-94
2022/03/27 16:05:48;;;;;;;;;;;24.80;48.50;;;;;;4917314;29;20006;-95
2022/03/27 16:08:14;;;;;;;;;;;24.90;48.70;;;;;;4916873;29;20099;-94
2022/03/27 16:10:45;;;;;;;;;;;25.50;47.90;;;;;;4917321;29;20397;-95
2022/03/27 16:13:14;;;;;;;;;;;25.90;47.70;;;;;;4917161;29;19910;-94
2022/03/27 16:15:40;;;;;;;;;;;26.00;46.90;;;;;;4917248;29;19919;-94
2022/03/27 16:18:13;;;;;;;;;;;26.60;46.90;;;;;;4916839;29;20419;-95
2022/03/27 16:20:58;;;;;;;;;;;27.60;46.50;;;;;;4917477;29;19965;-95
2022/03/27 16:23:29;;;;;;;;;;;28.30;46.40;;;;;;4917273;29;19911;-95
2022/03/27 16:25:55;;;;;;;;;;;28.40;45.70;;;;;;4917497;29;19978;-94
2022/03/27 16:28:21;;;;;;;;;;;27.90;46.40;;;;;;4917350;29;20343;-95
2022/03/27 16:30:47;;;;;;;;;;;27.10;47.20;;;;;;4916983;29;19918;-94
2022/03/27 16:33:15;;;;;;;;;;;25.90;48.70;;;;;;4917148;29;19985;-95
2022/03/27 16:35:42;;;;;;;;;;;24.90;48.50;;;;;;4917027;29;19919;-94
2022/03/27 16:38:08;;;;;;;;;;;24.40;49.60;;;;;;4917213;29;19917;-95
2022/03/27 16:40:36;;;;;;;;;;;24.20;51.00;;;;;;4930104;29;19960;-95
2022/03/27 16:43:02;;;;;;;;;;;24.00;50.50;;;;;;4930250;29;19914;-95
2022/03/27 16:45:30;;;;;;;;;;;23.40;52.10;;;;;;4929392;29;20384;-95
2022/03/27 16:47:55;;;;;;;;;;;23.10;50.60;;;;;;4917457;29;19935;-94
2022/03/27 16:50:24;;;;;;;;;;;22.80;51.10;;;;;;4917219;29;19911;-95
2022/03/27 16:52:50;;;;;;;;;;;22.50;56.00;;;;;;4916668;29;20082;-94
2022/03/27 16:55:18;;;;;;;;;;;22.20;57.00;;;;;;4917053;29;20013;-95
2022/03/27 16:57:44;;;;;;;;;;;22.00;57.90;;;;;;4917038;29;19988;-94
2022/03/27 17:00:11;;;;;;;;;;;21.80;59.30;;;;;;4917021;29;19919;-95
2022/03/27 17:02:42;;;;;;;;;;;21.40;61.30;;;;;;4917239;29;19910;-94
2022/03/27 17:05:09;;;;;;;;;;;21.00;60.90;;;;;;4916956;29;20335;-95
2022/03/27 17:07:38;;;;;;;;;;;20.80;61.40;;;;;;4917416;29;19911;-94
2022/03/27 17:10:04;;;;;;;;;;;20.50;62.10;;;;;;4917012;29;19930;-94
2022/03/27 17:12:30;;;;;;;;;;;20.30;62.40;;;;;;4917049;29;20380;-94
2022/03/27 17:14:58;;;;;;;;;;;20.30;63.30;;;;;;4916779;29;19917;-95
2022/03/27 17:17:24;;;;;;;;;;;20.10;64.60;;;;;;4917043;29;19911;-94
2022/03/27 17:19:50;;;;;;;;;;;20.10;64.00;;;;;;4917051;29;19911;-94
2022/03/27 17:22:18;;;;;;;;;;;20.00;64.30;;;;;;4917203;29;19918;-95
2022/03/27 17:24:46;;;;;;;;;;;19.80;65.10;;;;;;4917115;29;19911;-95
2022/03/27 17:27:15;;;;;;;;;;;19.60;66.50;;;;;;4917027;29;19911;-95
2022/03/27 17:29:45;;;;;;;;;;;19.40;67.60;;;;;;4919060;29;20288;-94
2022/03/27 17:32:14;;;;;;;;;;;19.30;69.40;;;;;;4920326;29;19946;-95
2022/03/27 17:34:40;;;;;;;;;;;19.10;70.70;;;;;;4920982;29;20384;-95
2022/03/27 17:37:06;;;;;;;;;;;19.00;71.20;;;;;;4920640;29;19919;-94
2022/03/27 17:39:32;;;;;;;;;;;18.90;72.30;;;;;;4920176;29;19911;-93
2022/03/27 17:41:59;;;;;;;;;;;18.90;72.20;;;;;;4920071;29;20260;-92
2022/03/27 17:53:49;;;;;;;;;;;18.60;74.90;;;;;;4862215;29;19924;-94
2022/03/27 17:56:20;;;;;;;;;;;18.50;75.80;;;;;;4950437;29;19930;-93